CAUA4: Poteau River At Cauthron, AR

Data processed at Sat Mar 10 2018 23:31


All information presented herein is the property of the government of the United States of America and may be revised or deleted at any time without prior notice.
Dissemination of this information without the expressed written consent of the Public Affairs Office, Tulsa District U.S. Army Corps of Engineers is strictly prohibited.
These data are gathered electronically and, as presented, have not undergone any form of quality control. These data are not guaranteed to be valid or correct.
Go to home page.
Go to station list.

Downstream station:


Previous Day
Next Day
Current Day
    
SHEF ID:       CAUA4     Poteau River at Cauthron, AR
STATION TYPE:  

               PRECIP     STAGE  RIV-FLOW  BAT-LOAD
                   in        ft       cfs      volt
              Ccp-Rev   Ccp-Rev   Ccp-Rev   Ccp-Rev
(US/Central)
03/08 00:00      0.00      5.74       524     12.54
03/08 01:00      0.00      5.74       524     12.48
03/08 02:00      0.00      5.73       515     12.42
03/08 03:00      0.00      5.73       515     12.42
03/08 04:00      0.00      5.72       506     12.42
03/08 05:00      0.00      5.70       487     12.36
03/08 06:00      0.00      5.67       461     12.36
03/08 07:00      0.00      5.65       444     12.36
03/08 08:00      0.00      5.63       428     12.48
03/08 09:00      0.00      5.62       420     13.71
03/08 10:00      0.00      5.61       412     13.53
03/08 11:00      0.00      5.57       381     13.48
03/08 12:00      0.00      5.57       381     13.18
03/08 13:00      0.00      5.56       374     13.53
03/08 14:00      0.00      5.55       367     12.95
03/08 15:00      0.00      5.54       359     12.89
03/08 16:00      0.00      5.55       367     12.89
03/08 17:00      0.00      5.55       367     12.83
03/08 18:00      0.00      5.54       359     12.71
03/08 19:00      0.00      5.53       352     12.65
03/08 20:00      0.00      5.53       352     12.65
03/08 21:00      0.00      5.52       345     12.60
03/08 22:00      0.00      5.52       345     12.60
03/08 23:00      0.00      5.51       338     12.60